createdAt,value
2023-05-04T00:02:08.294Z,57.92
2023-05-04T00:04:42.397Z,57.68
2023-05-04T00:07:14.658Z,57.41
2023-05-04T00:09:46.839Z,57.52
2023-05-04T00:12:19.147Z,57.23
2023-05-04T00:14:51.262Z,57.10
2023-05-04T00:17:23.362Z,57.54
2023-05-04T00:19:55.752Z,57.45
2023-05-04T00:22:28.124Z,57.14
2023-05-04T00:25:00.264Z,56.64
2023-05-04T00:27:35.205Z,55.98
2023-05-04T00:30:08.798Z,56.03
2023-05-04T00:32:41.298Z,56.04
2023-05-04T00:35:13.579Z,56.23
2023-05-04T00:37:46.673Z,55.65
2023-05-04T00:40:18.619Z,55.82
2023-05-04T00:42:50.921Z,56.04
2023-05-04T00:45:23.298Z,56.15
2023-05-04T00:47:56.160Z,56.09
2023-05-04T00:50:29.825Z,56.19
2023-05-04T00:53:04.915Z,56.50
2023-05-04T00:55:41.247Z,56.18
2023-05-04T00:58:13.715Z,56.44
2023-05-04T01:00:46.173Z,56.13
2023-05-04T01:03:18.710Z,55.85
2023-05-04T01:06:08.344Z,56.04
2023-05-04T01:08:45.935Z,56.02
2023-05-04T01:11:21.518Z,56.13
2023-05-04T01:13:54.567Z,56.03
2023-05-04T01:16:26.633Z,56.68
2023-05-04T01:18:58.684Z,57.30
2023-05-04T01:21:31.651Z,57.17
2023-05-04T01:24:03.817Z,57.01
2023-05-04T01:26:41.831Z,56.94
2023-05-04T01:29:16.934Z,56.68
2023-05-04T01:31:51.085Z,56.92
2023-05-04T01:34:25.057Z,57.35
2023-05-04T01:36:59.059Z,56.56
2023-05-04T01:39:31.478Z,56.49
2023-05-04T01:42:07.076Z,56.82
2023-05-04T01:44:39.578Z,57.59
2023-05-04T01:47:11.851Z,57.48
2023-05-04T01:49:44.036Z,57.75
2023-05-04T01:52:16.240Z,57.55
2023-05-04T01:54:48.805Z,57.30
2023-05-04T01:57:20.990Z,57.35
2023-05-04T01:59:53.079Z,57.04
2023-05-04T02:02:25.823Z,56.37
2023-05-04T02:04:57.880Z,57.00
2023-05-04T02:07:30.073Z,56.83
2023-05-04T02:10:02.899Z,56.65
2023-05-04T02:12:35.867Z,56.74
2023-05-04T02:15:08.764Z,56.88
2023-05-04T02:17:41.014Z,56.78
2023-05-04T02:20:13.734Z,56.96
2023-05-04T02:22:47.410Z,56.88
2023-05-04T02:25:20.216Z,57.62
2023-05-04T02:27:52.239Z,57.10
2023-05-04T02:30:24.689Z,56.67
2023-05-04T02:32:56.881Z,56.36
2023-05-04T02:35:29.037Z,56.20
2023-05-04T02:38:01.320Z,55.34
2023-05-04T02:40:33.994Z,55.40
2023-05-04T02:43:06.042Z,55.49
2023-05-04T02:45:39.664Z,54.77
2023-05-04T02:48:12.108Z,54.84
2023-05-04T02:50:46.626Z,54.67
2023-05-04T02:53:18.192Z,54.50
2023-05-04T02:55:49.948Z,53.64
2023-05-04T02:58:22.344Z,53.77
2023-05-04T03:00:57.760Z,53.65
2023-05-04T03:03:30.625Z,53.53
2023-05-04T03:06:03.520Z,53.42
2023-05-04T03:08:36.312Z,53.15
2023-05-04T03:11:08.737Z,52.75
2023-05-04T03:13:41.717Z,52.56
2023-05-04T03:16:13.903Z,52.49
2023-05-04T03:18:46.488Z,52.22
2023-05-04T03:21:19.091Z,52.27
2023-05-04T03:23:52.842Z,52.23
2023-05-04T03:26:25.839Z,52.50
2023-05-04T03:28:58.445Z,51.45
2023-05-04T03:31:31.060Z,51.30
2023-05-04T03:34:03.775Z,51.17
2023-05-04T03:36:36.523Z,51.47
2023-05-04T03:39:09.374Z,51.30
2023-05-04T03:41:41.949Z,50.60
2023-05-04T03:44:14.198Z,50.51
2023-05-04T03:46:46.317Z,50.33
2023-05-04T03:49:18.631Z,49.91
2023-05-04T03:51:50.869Z,49.60
2023-05-04T03:54:23.420Z,49.06
2023-05-04T03:56:55.967Z,48.33
2023-05-04T03:59:28.438Z,48.62
2023-05-04T04:02:01.600Z,48.49
2023-05-04T04:04:34.400Z,48.48
2023-05-04T04:07:07.106Z,48.14
2023-05-04T04:09:39.567Z,47.85
2023-05-04T04:12:11.770Z,46.64
2023-05-04T04:14:44.223Z,46.13
2023-05-04T04:17:16.971Z,46.42
2023-05-04T04:19:49.563Z,46.91
2023-05-04T04:22:22.185Z,45.57
2023-05-04T04:24:54.669Z,45.43
2023-05-04T04:27:26.829Z,45.94
2023-05-04T04:29:59.569Z,45.11
2023-05-04T04:32:34.296Z,44.88
2023-05-04T04:35:07.080Z,45.51
2023-05-04T04:37:39.346Z,44.70
2023-05-04T04:40:13.228Z,45.40
2023-05-04T04:42:45.680Z,44.78
2023-05-04T04:45:18.126Z,44.50
2023-05-04T04:47:50.489Z,44.85
2023-05-04T04:50:22.828Z,44.89
2023-05-04T04:52:55.490Z,44.07
2023-05-04T04:55:27.907Z,44.42
2023-05-04T04:58:01.238Z,44.01
2023-05-04T05:00:33.431Z,43.96
2023-05-04T05:03:06.080Z,43.77
2023-05-04T05:05:38.424Z,43.78
2023-05-04T05:08:10.673Z,43.80
2023-05-04T05:10:44.094Z,43.35
2023-05-04T05:13:16.949Z,43.06
2023-05-04T05:15:49.450Z,42.65
2023-05-04T05:18:22.300Z,42.42
2023-05-04T05:20:54.769Z,42.68
2023-05-04T05:23:27.019Z,41.56
2023-05-04T05:26:01.321Z,41.08
2023-05-04T05:28:33.745Z,41.48
2023-05-04T05:31:07.163Z,40.74
2023-05-04T05:33:42.383Z,40.47
2023-05-04T05:36:15.122Z,40.75
2023-05-04T05:38:49.741Z,40.49
2023-05-04T05:41:22.841Z,37.92
2023-05-04T05:43:55.370Z,37.44
2023-05-04T05:46:28.994Z,37.85
2023-05-04T05:49:03.107Z,38.16
2023-05-04T05:51:35.956Z,37.87
2023-05-04T05:54:08.266Z,38.16
2023-05-04T05:56:40.633Z,38.67
2023-05-04T05:59:13.622Z,38.67
2023-05-04T06:01:46.124Z,38.14
2023-05-04T06:04:18.330Z,37.88
2023-05-04T06:06:50.937Z,37.60
2023-05-04T06:09:24.088Z,36.94
2023-05-04T06:11:56.945Z,36.37
2023-05-04T06:14:30.759Z,36.26
2023-05-04T06:17:03.270Z,34.16
2023-05-04T06:19:39.732Z,31.92
2023-05-04T06:22:12.911Z,32.27
2023-05-04T06:24:45.381Z,30.77
2023-05-04T06:27:18.228Z,28.14
2023-05-04T06:29:50.425Z,26.56
2023-05-04T06:32:22.937Z,27.13
2023-05-04T06:34:56.367Z,27.17
2023-05-04T06:37:29.242Z,27.17
2023-05-04T06:40:02.629Z,27.43
2023-05-04T06:42:34.915Z,28.27
2023-05-04T06:45:08.113Z,29.01
2023-05-04T06:47:40.327Z,28.63
2023-05-04T06:50:13.490Z,29.32
2023-05-04T06:52:46.769Z,29.63
2023-05-04T06:55:19.997Z,30.76
2023-05-04T06:57:53.402Z,30.56
2023-05-04T07:00:27.744Z,30.84
2023-05-04T07:03:00.341Z,31.73
2023-05-04T07:05:37.488Z,31.35
2023-05-04T07:08:10.379Z,31.74
2023-05-04T07:10:42.560Z,32.32
2023-05-04T07:13:16.158Z,31.02
2023-05-04T07:15:48.686Z,30.87
2023-05-04T07:18:20.905Z,31.29
2023-05-04T07:20:58.714Z,31.13
2023-05-04T07:23:28.132Z,31.21
2023-05-04T07:26:01.187Z,31.59
2023-05-04T07:28:34.762Z,31.59
2023-05-04T07:31:07.240Z,31.75
2023-05-04T07:33:40.272Z,32.05
2023-05-04T07:36:12.644Z,32.61
2023-05-04T07:38:45.825Z,32.00
2023-05-04T07:41:18.598Z,31.27
2023-05-04T07:43:51.002Z,30.04
2023-05-04T07:46:24.023Z,29.04
2023-05-04T07:48:56.652Z,30.06
2023-05-04T07:51:29.416Z,30.18
2023-05-04T07:54:02.174Z,29.93
2023-05-04T07:56:36.491Z,30.22
2023-05-04T07:59:08.886Z,30.75
2023-05-04T08:01:44.012Z,31.44
2023-05-04T08:04:15.523Z,31.50
2023-05-04T08:06:49.582Z,31.55
2023-05-04T08:09:22.200Z,30.74
2023-05-04T08:11:54.605Z,31.60
2023-05-04T08:14:27.566Z,31.19
2023-05-04T08:17:00.975Z,31.39
2023-05-04T08:19:33.947Z,30.62
2023-05-04T08:22:06.683Z,30.10
2023-05-04T08:24:40.175Z,29.26
2023-05-04T08:27:16.333Z,29.26
2023-05-04T08:29:50.573Z,27.54
2023-05-04T08:32:23.937Z,27.68
2023-05-04T08:34:56.571Z,28.15
2023-05-04T08:37:29.412Z,27.51
2023-05-04T08:40:02.022Z,28.19
2023-05-04T08:42:35.906Z,26.89
2023-05-04T08:45:10.816Z,27.80
2023-05-04T08:47:45.307Z,27.65
2023-05-04T08:50:18.127Z,27.46
2023-05-04T08:52:50.963Z,27.66
2023-05-04T08:55:23.522Z,28.24
2023-05-04T08:57:57.116Z,27.05
2023-05-04T09:00:31.720Z,28.08
2023-05-04T09:03:05.337Z,27.52
2023-05-04T09:05:38.789Z,27.90
2023-05-04T09:08:11.125Z,28.02
2023-05-04T09:10:43.902Z,26.04
2023-05-04T09:13:18.260Z,26.35
2023-05-04T09:15:58.849Z,27.22
2023-05-04T09:18:42.471Z,26.92
2023-05-04T09:21:15.068Z,27.63
2023-05-04T09:23:54.655Z,28.30
2023-05-04T09:26:31.852Z,27.15
2023-05-04T09:29:14.785Z,27.49
2023-05-04T09:31:51.732Z,27.75
2023-05-04T09:34:24.589Z,27.84
2023-05-04T09:37:02.758Z,27.61
2023-05-04T09:39:35.613Z,27.43
2023-05-04T09:42:10.599Z,27.66
2023-05-04T09:44:44.596Z,27.19
2023-05-04T09:47:18.810Z,27.27
2023-05-04T09:49:52.479Z,26.70
2023-05-04T09:52:27.204Z,26.63
2023-05-04T09:55:00.596Z,26.70
2023-05-04T09:57:33.599Z,25.19
2023-05-04T10:00:06.877Z,25.19
2023-05-04T10:02:40.129Z,25.33
2023-05-04T10:05:20.581Z,25.85
2023-05-04T10:07:55.619Z,25.42
2023-05-04T10:10:28.255Z,24.74
2023-05-04T10:13:04.225Z,24.69
2023-05-04T10:15:49.502Z,24.93
2023-05-04T10:18:33.374Z,24.93
2023-05-04T10:21:21.890Z,25.14
2023-05-04T10:24:02.896Z,25.87
2023-05-04T10:26:53.967Z,24.40
2023-05-04T10:29:29.017Z,23.92
2023-05-04T10:32:01.835Z,24.04
2023-05-04T10:34:35.857Z,22.47
2023-05-04T10:37:10.921Z,22.47
2023-05-04T10:39:46.373Z,22.27
2023-05-04T10:42:18.585Z,21.83
2023-05-04T10:44:54.672Z,21.95
2023-05-04T10:47:35.953Z,22.92
2023-05-04T10:50:12.188Z,23.07
2023-05-04T10:52:50.317Z,22.79
2023-05-04T10:55:24.992Z,23.26
2023-05-04T10:57:58.484Z,23.06
2023-05-04T11:00:45.065Z,22.14
2023-05-04T11:03:19.364Z,23.32
2023-05-04T11:05:52.773Z,23.32
2023-05-04T11:08:26.262Z,24.17
2023-05-04T11:11:08.275Z,22.90
2023-05-04T11:13:47.684Z,23.02
2023-05-04T11:16:27.520Z,23.02
2023-05-04T11:19:11.150Z,23.53
2023-05-04T11:21:43.541Z,23.91
2023-05-04T11:24:16.250Z,24.57
2023-05-04T11:26:50.188Z,23.85
2023-05-04T11:29:22.796Z,23.85
2023-05-04T11:31:56.706Z,23.82
2023-05-04T11:34:29.078Z,23.86
2023-05-04T11:37:03.032Z,23.65
2023-05-04T11:39:36.720Z,23.62
2023-05-04T11:42:10.042Z,23.47
2023-05-04T11:44:43.561Z,23.16
2023-05-04T11:47:16.471Z,22.25
2023-05-04T11:49:48.764Z,22.25
2023-05-04T11:52:25.893Z,20.84
2023-05-04T11:54:58.844Z,19.19
2023-05-04T11:57:32.245Z,18.05
2023-05-04T12:00:07.129Z,16.94
2023-05-04T12:02:39.596Z,15.97
2023-05-04T12:05:14.246Z,15.30
2023-05-04T12:07:46.916Z,14.56
2023-05-04T12:10:30.013Z,14.20
2023-05-04T12:13:03.084Z,15.21
2023-05-04T12:15:37.697Z,13.00
2023-05-04T12:18:09.020Z,11.79
2023-05-04T12:20:40.694Z,14.67
2023-05-04T12:23:13.176Z,12.59
2023-05-04T12:25:57.396Z,13.25
2023-05-04T12:28:20.979Z,13.59
2023-05-04T12:30:54.292Z,12.97
2023-05-04T12:33:27.028Z,12.25
2023-05-04T12:36:03.438Z,12.75
2023-05-04T12:38:36.427Z,13.41
2023-05-04T12:41:10.568Z,13.18
2023-05-04T12:43:43.813Z,13.08
2023-05-04T12:46:17.735Z,11.76
2023-05-04T12:48:51.005Z,11.14
2023-05-04T12:51:23.211Z,10.78
2023-05-04T12:53:58.312Z,10.11
2023-05-04T12:56:30.927Z,10.48
2023-05-04T12:59:03.499Z,10.22
2023-05-04T13:01:36.072Z,10.16
2023-05-04T13:04:08.357Z,10.48
2023-05-04T13:06:40.860Z,11.42
2023-05-04T13:09:13.627Z,12.11
2023-05-04T13:11:46.208Z,12.74
2023-05-04T13:14:19.232Z,13.10
2023-05-04T13:16:54.039Z,13.21
2023-05-04T13:19:26.235Z,13.69
2023-05-04T13:21:58.551Z,14.35
2023-05-04T13:24:31.887Z,15.24
2023-05-04T13:27:04.369Z,15.08
2023-05-04T13:29:37.102Z,15.42
2023-05-04T13:32:09.338Z,16.13
2023-05-04T13:34:42.093Z,15.82
2023-05-04T13:37:16.024Z,14.05
2023-05-04T13:39:48.838Z,13.33
2023-05-04T13:42:21.356Z,12.90
2023-05-04T13:44:53.923Z,12.83
2023-05-04T13:47:26.892Z,13.56
2023-05-04T13:49:59.634Z,14.04
2023-05-04T13:52:33.482Z,15.28
2023-05-04T13:55:06.512Z,15.53
2023-05-04T13:57:39.010Z,15.82
2023-05-04T14:00:12.642Z,16.60
2023-05-04T14:02:45.038Z,16.76
2023-05-04T14:05:17.758Z,16.97
2023-05-04T14:07:51.763Z,17.56
2023-05-04T14:10:24.390Z,17.45
2023-05-04T14:12:56.857Z,17.99
2023-05-04T14:15:29.430Z,18.10
2023-05-04T14:18:02.022Z,18.47
2023-05-04T14:20:34.218Z,19.13
2023-05-04T14:23:06.525Z,18.19
2023-05-04T14:25:38.981Z,19.05
2023-05-04T14:28:11.466Z,19.41
2023-05-04T14:30:43.847Z,19.61
2023-05-04T14:33:16.738Z,19.87
2023-05-04T14:35:49.101Z,19.61
2023-05-04T14:38:21.546Z,19.52
2023-05-04T14:40:55.492Z,20.03
2023-05-04T14:43:27.735Z,20.22
2023-05-04T14:46:03.775Z,20.62
2023-05-04T14:48:35.896Z,21.01
2023-05-04T14:51:08.255Z,22.46
2023-05-04T14:53:41.222Z,21.92
2023-05-04T14:56:13.654Z,22.11
2023-05-04T14:58:46.511Z,21.43
2023-05-04T15:01:18.670Z,21.50
2023-05-04T15:03:51.124Z,21.57
2023-05-04T15:06:23.391Z,21.96
2023-05-04T15:08:55.505Z,21.65
2023-05-04T15:11:27.638Z,21.69
2023-05-04T15:13:59.953Z,21.71
2023-05-04T15:16:33.444Z,22.00
2023-05-04T15:19:05.757Z,21.75
2023-05-04T15:21:38.412Z,21.74
2023-05-04T15:24:10.965Z,22.02
2023-05-04T15:26:43.473Z,22.26
2023-05-04T15:29:16.205Z,22.99
2023-05-04T15:31:48.796Z,22.16
2023-05-04T15:34:21.340Z,22.64
2023-05-04T15:36:53.693Z,22.86
2023-05-04T15:39:26.667Z,23.05
2023-05-04T15:41:59.220Z,23.48
2023-05-04T15:44:32.351Z,23.23
2023-05-04T15:47:06.358Z,23.36
2023-05-04T15:49:38.799Z,22.62
2023-05-04T15:52:11.744Z,23.24
2023-05-04T15:54:45.201Z,22.79
2023-05-04T15:57:17.577Z,23.01
2023-05-04T15:59:50.089Z,22.96
2023-05-04T16:02:22.566Z,23.52
2023-05-04T16:04:54.754Z,23.23
2023-05-04T16:07:27.349Z,22.77
2023-05-04T16:09:59.775Z,22.51
2023-05-04T16:12:33.553Z,22.96
2023-05-04T16:15:06.116Z,23.04
2023-05-04T16:17:38.692Z,23.18
2023-05-04T16:20:12.074Z,23.26
2023-05-04T16:22:44.479Z,23.82
2023-05-04T16:25:16.893Z,23.49
2023-05-04T16:27:50.543Z,23.49
2023-05-04T16:30:23.184Z,23.95
2023-05-04T16:32:57.044Z,23.83
2023-05-04T16:35:31.103Z,24.14
2023-05-04T16:38:04.168Z,24.83
2023-05-04T16:40:37.354Z,25.10
2023-05-04T16:43:10.602Z,25.07
2023-05-04T16:45:43.207Z,25.28
2023-05-04T16:48:15.722Z,25.57
2023-05-04T16:50:48.025Z,25.57
2023-05-04T16:53:21.093Z,25.57
2023-05-04T16:55:53.557Z,26.02
2023-05-04T16:58:26.477Z,26.16
2023-05-04T17:00:58.623Z,26.05
2023-05-04T17:03:32.958Z,26.45
2023-05-04T17:06:05.694Z,26.77
2023-05-04T17:08:37.937Z,26.97
2023-05-04T17:11:11.000Z,27.05
2023-05-04T17:13:43.608Z,27.20
2023-05-04T17:16:16.024Z,27.34
2023-05-04T17:18:48.413Z,27.07
2023-05-04T17:21:20.916Z,27.28
2023-05-04T17:23:53.345Z,27.66
2023-05-04T17:26:25.295Z,27.21
2023-05-04T17:28:57.600Z,27.88
2023-05-04T17:31:29.914Z,27.63
2023-05-04T17:34:02.567Z,27.84
2023-05-04T17:36:35.289Z,28.01
2023-05-04T17:39:07.682Z,28.41
2023-05-04T17:41:39.826Z,28.21
2023-05-04T17:44:12.478Z,27.86
2023-05-04T17:46:45.196Z,28.40
2023-05-04T17:49:19.166Z,28.37
2023-05-04T17:51:51.618Z,28.24
2023-05-04T17:54:23.951Z,28.67
2023-05-04T17:56:56.378Z,28.17
2023-05-04T17:59:28.839Z,28.58
2023-05-04T18:02:01.535Z,28.20
2023-05-04T18:04:35.366Z,28.74
2023-05-04T18:07:07.467Z,28.62
2023-05-04T18:09:39.618Z,28.81
2023-05-04T18:12:11.928Z,29.14
2023-05-04T18:14:44.286Z,29.27
2023-05-04T18:17:16.415Z,29.16
2023-05-04T18:19:48.771Z,29.47
2023-05-04T18:22:21.280Z,29.55
2023-05-04T18:24:53.336Z,29.94
2023-05-04T18:27:25.912Z,30.26
2023-05-04T18:29:58.351Z,30.06
2023-05-04T18:32:30.866Z,30.30
2023-05-04T18:35:12.210Z,30.49
2023-05-04T18:37:44.496Z,31.00
2023-05-04T18:40:16.812Z,30.57
2023-05-04T18:42:50.487Z,30.54
2023-05-04T18:45:22.714Z,30.30
2023-05-04T18:47:54.992Z,31.21
2023-05-04T18:50:27.413Z,30.59
2023-05-04T18:53:00.585Z,31.15
2023-05-04T18:55:32.838Z,31.15
2023-05-04T18:58:05.000Z,31.07
2023-05-04T19:00:37.376Z,31.01
2023-05-04T19:03:09.925Z,30.89
2023-05-04T19:05:42.299Z,30.57
2023-05-04T19:08:14.288Z,30.87
2023-05-04T19:10:49.857Z,31.51
2023-05-04T19:13:22.218Z,31.44
2023-05-04T19:15:54.286Z,31.27
2023-05-04T19:18:27.029Z,30.92
2023-05-04T19:20:59.203Z,31.46
2023-05-04T19:23:31.340Z,30.44
2023-05-04T19:26:04.370Z,30.91
2023-05-04T19:28:37.286Z,30.88
2023-05-04T19:31:10.009Z,30.59
2023-05-04T19:33:48.320Z,30.63
2023-05-04T19:36:17.182Z,30.54
2023-05-04T19:38:49.738Z,30.11
2023-05-04T19:41:22.618Z,30.74
2023-05-04T19:43:55.167Z,31.13
2023-05-04T19:46:28.082Z,31.45
2023-05-04T19:49:00.675Z,32.03
2023-05-04T19:51:33.026Z,31.29
2023-05-04T19:54:05.449Z,31.36
2023-05-04T19:56:37.719Z,31.75
2023-05-04T19:59:10.028Z,31.64
2023-05-04T20:01:42.148Z,32.15
2023-05-04T20:04:14.557Z,32.45
2023-05-04T20:06:46.751Z,32.55
2023-05-04T20:09:19.632Z,32.95
2023-05-04T20:11:51.804Z,33.76
2023-05-04T20:14:23.953Z,33.94
2023-05-04T20:16:56.137Z,33.95
2023-05-04T20:19:28.370Z,34.00
2023-05-04T20:22:00.564Z,34.47
2023-05-04T20:24:32.549Z,34.82
2023-05-04T20:27:05.159Z,35.42
2023-05-04T20:29:37.212Z,36.05
2023-05-04T20:32:10.877Z,36.51
2023-05-04T20:34:43.982Z,36.91
2023-05-04T20:37:16.321Z,37.38
2023-05-04T20:39:48.553Z,37.90
2023-05-04T20:42:21.872Z,38.34
2023-05-04T20:44:54.385Z,38.49
2023-05-04T20:47:26.700Z,38.98
2023-05-04T20:49:58.889Z,39.63
2023-05-04T20:52:32.597Z,39.96
2023-05-04T20:55:04.828Z,40.28
2023-05-04T20:57:37.176Z,40.59
2023-05-04T21:00:11.399Z,40.76
2023-05-04T21:02:43.574Z,40.80
2023-05-04T21:05:15.737Z,40.70
2023-05-04T21:07:48.247Z,40.87
2023-05-04T21:10:21.979Z,40.92
2023-05-04T21:12:54.344Z,40.77
2023-05-04T21:15:26.712Z,40.94
2023-05-04T21:17:59.109Z,41.37
2023-05-04T21:20:31.549Z,41.77
2023-05-04T21:23:04.320Z,41.80
2023-05-04T21:25:37.298Z,42.01
2023-05-04T21:28:09.607Z,42.16
2023-05-04T21:30:44.629Z,42.57
2023-05-04T21:33:17.493Z,42.27
2023-05-04T21:35:49.719Z,42.71
2023-05-04T21:38:22.619Z,42.96
2023-05-04T21:40:54.778Z,43.58
2023-05-04T21:43:27.138Z,43.93
2023-05-04T21:45:59.506Z,43.88
2023-05-04T21:48:31.881Z,43.85
2023-05-04T21:51:03.977Z,43.94
2023-05-04T21:53:36.776Z,44.23
2023-05-04T21:56:10.369Z,44.39
2023-05-04T21:58:43.491Z,44.22
2023-05-04T22:01:19.237Z,43.92
2023-05-04T22:03:53.096Z,44.18
2023-05-04T22:06:26.531Z,43.77
2023-05-04T22:08:58.642Z,43.76
2023-05-04T22:11:31.080Z,43.75
2023-05-04T22:14:03.200Z,43.76
2023-05-04T22:16:35.535Z,43.84
2023-05-04T22:19:07.839Z,43.57
2023-05-04T22:21:40.055Z,43.57
2023-05-04T22:24:12.169Z,43.84
2023-05-04T22:26:44.590Z,43.55
2023-05-04T22:29:16.872Z,43.41
2023-05-04T22:31:48.972Z,43.54
2023-05-04T22:34:22.044Z,43.41
2023-05-04T22:36:55.026Z,43.49
2023-05-04T22:39:27.757Z,43.68
2023-05-04T22:42:01.514Z,43.62
2023-05-04T22:44:35.318Z,43.67
2023-05-04T22:47:08.284Z,43.52
2023-05-04T22:49:41.526Z,43.42
2023-05-04T22:52:14.456Z,43.79
2023-05-04T22:54:47.760Z,44.13
2023-05-04T22:57:20.541Z,44.02
2023-05-04T22:59:53.343Z,44.15
2023-05-04T23:02:26.374Z,44.10
2023-05-04T23:05:00.694Z,44.06
2023-05-04T23:07:33.719Z,44.26
2023-05-04T23:10:07.403Z,43.92
2023-05-04T23:12:40.343Z,44.02
2023-05-04T23:15:14.211Z,43.91
2023-05-04T23:17:46.872Z,44.19
2023-05-04T23:20:19.918Z,44.39
2023-05-04T23:22:52.639Z,44.47
2023-05-04T23:25:25.516Z,44.39
2023-05-04T23:27:58.412Z,44.81
2023-05-04T23:30:31.187Z,44.38
2023-05-04T23:33:04.255Z,44.49
2023-05-04T23:35:36.966Z,44.58
2023-05-04T23:38:09.886Z,44.52
2023-05-04T23:40:42.706Z,44.71
2023-05-04T23:43:15.804Z,44.59
2023-05-04T23:45:48.966Z,44.64
2023-05-04T23:48:21.912Z,44.82
2023-05-04T23:50:57.583Z,45.22
2023-05-04T23:53:35.463Z,45.42
2023-05-04T23:56:08.540Z,46.27
2023-05-04T23:58:42.416Z,46.63
